Time;durP1;ratioP1;P1;durP2;ratioP2;P2;SDS_P1;SDS_P2;PMS_P1;PMS_P2;Temp;Humidity;BMP_temperature;BMP_pressure;BME280_temperature;BME280_humidity;BME280_pressure;Samples;Min_cycle;Max_cycle;Signal;HPM_P1;HPM_P2
2023/04/12 00:01:23;;;;;;;27.13;12.60;;;;;;;3.12;100.00;100624.03;7388203;19;20435;-41
2023/04/12 00:03:53;;;;;;;25.13;14.00;;;;;;;2.99;100.00;100625.72;7390564;19;20407;-36
2023/04/12 00:06:31;;;;;;;23.77;11.83;;;;;;;2.97;100.00;100611.97;7388574;19;20427;-37
2023/04/12 00:09:01;;;;;;;23.10;12.60;;;;;;;2.93;100.00;100613.41;7392777;19;20401;-38
2023/04/12 00:11:32;;;;;;;16.97;11.00;;;;;;;3.01;100.00;100606.31;7387881;19;21009;-37
2023/04/12 00:14:04;;;;;;;25.00;10.97;;;;;;;2.87;100.00;100614.66;7392347;19;20391;-36
2023/04/12 00:16:35;;;;;;;20.27;11.77;;;;;;;2.96;100.00;100612.75;7388653;19;20415;-36
2023/04/12 00:19:05;;;;;;;26.93;12.33;;;;;;;3.07;100.00;100604.19;7390468;19;20391;-37
2023/04/12 00:21:35;;;;;;;20.23;10.80;;;;;;;3.05;100.00;100610.88;7384726;19;20451;-37
2023/04/12 00:24:05;;;;;;;22.37;11.53;;;;;;;3.18;100.00;100588.78;7390417;19;20761;-36
2023/04/12 00:26:35;;;;;;;19.70;10.20;;;;;;;3.10;100.00;100589.13;7388999;19;20415;-37
2023/04/12 00:29:07;;;;;;;18.80;11.30;;;;;;;3.15;100.00;100580.91;7395100;19;20403;-36
2023/04/12 00:31:36;;;;;;;29.40;11.77;;;;;;;3.05;100.00;100581.94;7386993;19;20442;-37
2023/04/12 00:34:06;;;;;;;25.63;10.50;;;;;;;3.13;100.00;100577.38;7390278;19;20459;-36
2023/04/12 00:36:35;;;;;;;21.00;11.33;;;;;;;2.98;100.00;100578.09;7388706;19;20427;-37
2023/04/12 00:39:05;;;;;;;22.53;11.23;;;;;;;3.05;100.00;100575.19;7389786;19;20909;-36
2023/04/12 00:41:38;;;;;;;24.20;12.37;;;;;;;3.23;100.00;100572.13;7386508;19;20430;-37
2023/04/12 00:44:10;;;;;;;20.70;11.30;;;;;;;3.36;100.00;100567.09;7389449;19;20833;-37
2023/04/12 00:46:39;;;;;;;20.47;10.20;;;;;;;3.22;100.00;100573.78;7392215;19;20985;-36
2023/04/12 00:49:11;;;;;;;27.93;10.30;;;;;;;3.23;100.00;100561.94;7389739;19;20415;-37
2023/04/12 00:51:41;;;;;;;23.30;11.33;;;;;;;3.35;100.00;100560.19;7386704;19;20797;-37
2023/04/12 00:54:11;;;;;;;20.00;10.70;;;;;;;3.32;100.00;100557.44;7391151;19;20385;-36
2023/04/12 00:56:43;;;;;;;17.57;9.47;;;;;;;3.33;100.00;100556.66;7387678;19;20463;-36
2023/04/12 00:59:15;;;;;;;22.87;8.93;;;;;;;3.28;100.00;100563.09;7391631;19;20375;-37
2023/04/12 01:01:45;;;;;;;23.20;9.13;;;;;;;3.46;100.00;100550.72;7386236;19;20430;-37
2023/04/12 01:04:15;;;;;;;18.37;10.03;;;;;;;3.26;100.00;100544.28;7389067;19;20391;-36
2023/04/12 01:07:00;;;;;;;17.67;9.40;;;;;;;2.93;100.00;100538.63;7387203;19;20425;-38
2023/04/12 01:09:36;;;;;;;17.57;9.50;;;;;;;2.99;100.00;100544.16;7388928;19;20379;-36
2023/04/12 01:12:11;;;;;;;18.33;9.83;;;;;;;2.87;100.00;100535.66;7387721;19;20423;-37
2023/04/12 01:14:50;;;;;;;18.43;8.80;;;;;;;2.66;100.00;100538.50;7389803;19;20422;-37
2023/04/12 01:17:23;;;;;;;15.87;8.30;;;;;;;2.55;100.00;100536.06;7388920;19;20378;-37
2023/04/12 01:19:59;;;;;;;18.40;7.90;;;;;;;2.76;100.00;100530.69;7385249;19;20411;-36
2023/04/12 01:22:51;;;;;;;13.40;8.03;;;;;;;2.56;100.00;100527.66;7388569;19;20488;-38
2023/04/12 01:25:37;;;;;;;19.57;8.70;;;;;;;2.50;100.00;100533.94;7385945;19;20787;-37
2023/04/12 01:28:11;;;;;;;13.43;7.50;;;;;;;2.47;100.00;100524.47;7392746;19;20387;-37
2023/04/12 01:30:42;;;;;;;11.53;6.80;;;;;;;2.58;100.00;100529.41;7392896;19;20513;-36
2023/04/12 01:33:13;;;;;;;11.60;7.27;;;;;;;2.66;100.00;100515.56;7394699;19;20383;-37
2023/04/12 01:35:44;;;;;;;11.97;6.87;;;;;;;2.59;100.00;100520.97;7392995;19;20419;-36
2023/04/12 01:38:14;;;;;;;18.60;8.30;;;;;;;2.52;100.00;100518.00;7395033;19;20404;-37
2023/04/12 01:40:43;;;;;;;13.27;6.83;;;;;;;2.84;100.00;100519.38;7392060;19;20467;-38
2023/04/12 01:43:16;;;;;;;13.10;7.00;;;;;;;2.55;100.00;100518.25;7397025;19;20651;-36
2023/04/12 01:45:45;;;;;;;12.17;7.20;;;;;;;2.41;100.00;100516.38;7392260;19;20977;-37
2023/04/12 01:48:15;;;;;;;17.20;8.13;;;;;;;2.48;100.00;100513.50;7397153;19;20366;-37
2023/04/12 01:50:53;;;;;;;13.37;7.80;;;;;;;2.34;100.00;100509.97;7392612;19;20450;-36
2023/04/12 01:53:25;;;;;;;24.13;7.80;;;;;;;2.34;100.00;100502.31;7394630;19;20399;-36
2023/04/12 01:55:57;;;;;;;12.20;7.30;;;;;;;2.45;100.00;100503.06;7392780;19;20402;-36
2023/04/12 01:58:30;;;;;;;14.93;7.20;;;;;;;2.58;100.00;100494.66;7394491;19;20392;-37
2023/04/12 02:01:00;;;;;;;13.20;7.67;;;;;;;2.49;100.00;100489.78;7391247;19;20427;-36
2023/04/12 02:03:30;;;;;;;19.23;7.70;;;;;;;2.46;100.00;100484.47;7394231;19;20745;-37
2023/04/12 02:06:01;;;;;;;15.00;7.40;;;;;;;2.42;100.00;100483.38;7393077;19;20405;-37
2023/04/12 02:08:31;;;;;;;19.30;6.60;;;;;;;2.41;100.00;100484.16;7396498;19;20380;-38
2023/04/12 02:11:00;;;;;;;23.93;7.13;;;;;;;2.49;100.00;100479.59;7390757;19;20414;-36
2023/04/12 02:13:32;;;;;;;17.30;7.17;;;;;;;2.66;100.00;100475.66;7394191;19;20399;-36
2023/04/12 02:16:02;;;;;;;14.70;6.67;;;;;;;2.66;100.00;100469.72;7392300;19;20426;-36
2023/04/12 02:18:31;;;;;;;16.50;7.27;;;;;;;2.60;100.00;100466.75;7393492;19;20421;-36
2023/04/12 02:21:01;;;;;;;139.20;68.20;;;;;;;3.64;100.00;100456.66;7391179;19;20455;-37
2023/04/12 02:23:30;;;;;;;32.77;14.43;;;;;;;3.94;100.00;100455.97;7395934;19;20406;-36
2023/04/12 02:26:00;;;;;;;63.37;32.63;;;;;;;4.77;100.00;100435.47;7392775;19;20398;-36
2023/04/12 02:28:33;;;;;;;37.17;20.33;;;;;;;4.93;100.00;100430.44;7396958;19;20384;-37
2023/04/12 02:31:03;;;;;;;22.77;10.93;;;;;;;4.45;100.00;100425.03;7390931;19;20427;-36
2023/04/12 02:33:33;;;;;;;9.57;5.33;;;;;;;3.97;100.00;100434.84;7393554;19;20388;-40
2023/04/12 02:36:03;;;;;;;17.67;6.27;;;;;;;3.80;100.00;100446.56;7392343;19;20761;-37
2023/04/12 02:38:33;;;;;;;24.73;10.43;;;;;;;3.56;100.00;100446.72;7392972;19;20734;-36
2023/04/12 02:41:03;;;;;;;13.13;5.50;;;;;;;3.23;100.00;100457.38;7390222;19;20421;-37
2023/04/12 02:43:35;;;;;;;13.97;6.93;;;;;;;3.21;100.00;100451.28;7393156;19;20403;-36
2023/04/12 02:46:05;;;;;;;21.73;6.93;;;;;;;3.07;100.00;100461.44;7391299;19;20962;-36
2023/04/12 02:48:34;;;;;;;15.03;6.10;;;;;;;2.97;100.00;100451.38;7395310;19;20483;-37
2023/04/12 02:51:04;;;;;;;13.90;6.77;;;;;;;3.15;100.00;100451.75;7391846;19;20430;-36
2023/04/12 02:53:34;;;;;;;13.33;5.20;;;;;;;3.24;100.00;100454.91;7394581;19;20384;-36
2023/04/12 02:56:05;;;;;;;8.80;4.30;;;;;;;3.18;100.00;100451.09;7393409;19;20439;-36
2023/04/12 02:58:38;;;;;;;15.80;6.33;;;;;;;3.10;100.00;100440.38;7392766;19;20379;-36
2023/04/12 03:01:11;;;;;;;13.70;5.47;;;;;;;2.80;100.00;100435.84;7389827;19;20434;-36
2023/04/12 03:03:42;;;;;;;11.80;5.00;;;;;;;2.61;100.00;100432.84;7392361;19;20384;-38
2023/04/12 03:06:11;;;;;;;13.20;5.87;;;;;;;2.74;100.00;100422.69;7391720;19;20427;-37
2023/04/12 03:08:41;;;;;;;12.97;5.30;;;;;;;2.73;100.00;100418.38;7392169;19;20407;-36
2023/04/12 03:11:10;;;;;;;17.73;6.20;;;;;;;2.61;100.00;100407.38;7389396;19;20410;-36
2023/04/12 03:13:42;;;;;;;16.70;6.40;;;;;;;2.73;100.00;100403.09;7391926;19;20387;-38
2023/04/12 03:16:23;;;;;;;14.90;5.50;;;;;;;2.62;100.00;100386.19;7391379;19;20438;-37
2023/04/12 03:18:52;;;;;;;6.80;4.30;;;;;;;2.66;100.00;100391.59;7391910;19;20379;-36
2023/04/12 03:21:22;;;;;;;11.20;5.80;;;;;;;2.76;100.00;100388.00;7389500;19;20414;-37
2023/04/12 03:23:51;;;;;;;13.10;4.20;;;;;;;2.95;100.00;100387.59;7392161;19;20443;-37
2023/04/12 03:26:21;;;;;;;10.70;4.80;;;;;;;3.18;100.00;100382.25;7391186;19;20419;-36
2023/04/12 03:28:53;;;;;;;12.67;5.60;;;;;;;3.20;100.00;100375.56;7392247;19;20363;-37
2023/04/12 03:31:23;;;;;;;15.10;5.40;;;;;;;3.21;100.00;100370.56;7388701;19;20422;-37
2023/04/12 03:33:53;;;;;;;7.53;4.00;;;;;;;3.04;100.00;100369.47;7391967;19;20384;-36
2023/04/12 03:36:22;;;;;;;14.40;4.57;;;;;;;3.05;100.00;100361.03;7391200;19;20423;-39
2023/04/12 03:38:52;;;;;;;19.37;4.83;;;;;;;3.14;100.00;100367.50;7391657;19;20468;-39
2023/04/12 03:41:24;;;;;;;11.93;4.33;;;;;;;3.13;100.00;100366.63;7388669;19;20462;-38
2023/04/12 03:43:56;;;;;;;10.47;3.87;;;;;;;3.03;100.00;100354.94;7391177;19;20391;-37
2023/04/12 03:46:26;;;;;;;8.67;3.77;;;;;;;3.09;100.00;100360.44;7385936;19;20452;-39
2023/04/12 03:48:56;;;;;;;9.90;3.90;;;;;;;3.05;100.00;100358.50;7392409;19;20793;-41
2023/04/12 03:51:26;;;;;;;11.13;3.57;;;;;;;3.08;100.00;100357.81;7386970;19;20461;-37
2023/04/12 03:53:55;;;;;;;9.30;4.23;;;;;;;3.21;100.00;100352.72;7390129;19;20423;-37
2023/04/12 03:56:25;;;;;;;10.87;3.40;;;;;;;3.21;100.00;100350.19;7389595;19;20444;-37
2023/04/12 03:58:58;;;;;;;17.50;4.00;;;;;;;2.97;100.00;100347.78;7391478;19;20407;-37
2023/04/12 04:01:27;;;;;;;9.40;3.90;;;;;;;2.83;100.00;100329.03;7371129;19;20423;-36
2023/04/12 04:03:57;;;;;;;9.53;3.67;;;;;;;2.91;100.00;100333.72;7392860;19;21147;-39
2023/04/12 04:06:28;;;;;;;10.10;3.60;;;;;;;2.91;100.00;100321.00;7387853;19;20514;-37
2023/04/12 04:08:58;;;;;;;8.67;3.53;;;;;;;2.96;100.00;100310.34;7390979;19;20391;-38
2023/04/12 04:11:28;;;;;;;13.27;3.70;;;;;;;2.99;100.00;100306.22;7388540;19;21004;-40
2023/04/12 04:14:00;;;;;;;9.90;3.03;;;;;;;2.91;100.00;100308.25;7391147;19;20402;-40
2023/04/12 04:16:30;;;;;;;13.10;4.20;;;;;;;2.77;100.00;100303.13;7388768;19;20433;-39
2023/04/12 04:19:00;;;;;;;12.50;3.07;;;;;;;2.71;100.00;100297.63;7390616;19;20396;-37
2023/04/12 04:21:31;;;;;;;8.50;3.00;;;;;;;2.76;100.00;100291.19;7387354;19;20478;-40
2023/04/12 04:24:01;;;;;;;10.17;3.87;;;;;;;2.98;100.00;100282.41;7392443;19;20387;-38
2023/04/12 04:26:34;;;;;;;7.80;2.97;;;;;;;2.80;100.00;100282.06;7388685;19;20778;-39
2023/04/12 04:29:06;;;;;;;9.07;3.30;;;;;;;2.94;100.00;100280.44;7390414;19;20399;-37
2023/04/12 04:31:36;;;;;;;12.03;3.40;;;;;;;2.96;100.00;100271.22;7387125;19;20527;-37
2023/04/12 04:34:07;;;;;;;13.90;3.63;;;;;;;2.94;100.00;100267.69;7389641;19;20973;-37
2023/04/12 04:36:40;;;;;;;10.77;3.07;;;;;;;2.82;100.00;100266.09;7390789;19;20443;-40
2023/04/12 04:39:10;;;;;;;10.20;3.07;;;;;;;2.97;100.00;100250.03;7389900;19;20769;-38
2023/04/12 04:41:40;;;;;;;11.53;3.90;;;;;;;2.88;100.00;100249.44;7386004;19;20419;-36
2023/04/12 04:44:13;;;;;;;10.03;3.13;;;;;;;2.95;100.00;100249.06;7390515;19;20379;-36
2023/04/12 04:46:42;;;;;;;6.77;4.30;;;;;;;3.00;100.00;100245.16;7386827;19;20442;-36
2023/04/12 04:49:12;;;;;;;7.43;3.17;;;;;;;2.96;100.00;100250.81;7390052;19;20414;-39
2023/04/12 04:51:41;;;;;;;8.53;2.87;;;;;;;2.74;100.00;100236.69;7386486;19;20447;-37
2023/04/12 04:54:12;;;;;;;8.37;3.03;;;;;;;2.88;100.00;100241.81;7391980;19;20395;-38
2023/04/12 04:56:42;;;;;;;5.20;2.60;;;;;;;2.88;100.00;100226.50;7387917;19;20432;-38
2023/04/12 04:59:16;;;;;;;8.00;2.70;;;;;;;2.97;100.00;100214.34;7389419;19;20433;-37
2023/04/12 05:01:46;;;;;;;7.70;3.33;;;;;;;2.95;100.00;100218.47;7385960;19;20430;-38
2023/04/12 05:04:15;;;;;;;5.87;3.13;;;;;;;2.97;100.00;100219.44;7401336;19;20414;-37
2023/04/12 05:06:45;;;;;;;11.03;3.33;;;;;;;3.04;100.00;100228.38;7393117;19;20814;-37
2023/04/12 05:09:15;;;;;;;6.10;2.40;;;;;;;2.99;100.00;100228.09;7398034;19;20374;-36
2023/04/12 05:11:45;;;;;;;9.00;3.30;;;;;;;3.07;100.00;100226.91;7393488;19;20482;-38
2023/04/12 05:14:17;;;;;;;15.90;3.40;;;;;;;3.12;100.00;100228.88;7394924;19;20950;-37
2023/04/12 05:16:47;;;;;;;7.40;3.30;;;;;;;3.16;100.00;100230.81;7394833;19;20769;-37
2023/04/12 05:19:17;;;;;;;8.73;3.13;;;;;;;3.09;100.00;100234.66;7395048;19;20967;-38
2023/04/12 05:21:46;;;;;;;10.00;3.23;;;;;;;3.09;100.00;100227.00;7392273;19;20430;-37
2023/04/12 05:24:16;;;;;;;6.97;3.40;;;;;;;3.30;100.00;100218.94;7395274;19;20394;-37
2023/04/12 05:26:46;;;;;;;8.57;2.80;;;;;;;3.20;100.00;100227.69;7392652;19;20438;-37
2023/04/12 05:29:18;;;;;;;6.70;2.80;;;;;;;3.28;100.00;100216.28;7396417;19;20414;-36
2023/04/12 05:31:47;;;;;;;12.30;3.20;;;;;;;3.35;100.00;100220.97;7391612;19;20419;-36
2023/04/12 05:34:20;;;;;;;7.20;2.30;;;;;;;3.33;100.00;100203.84;7395399;19;20395;-36
2023/04/12 05:36:49;;;;;;;12.40;3.30;;;;;;;3.37;100.00;100198.13;7396079;19;20423;-37
2023/04/12 05:39:19;;;;;;;12.50;3.13;;;;;;;3.43;100.00;100195.09;7395109;19;20410;-37
2023/04/12 05:41:49;;;;;;;7.60;2.93;;;;;;;3.45;100.00;100201.16;7390424;19;20991;-37
2023/04/12 05:44:21;;;;;;;8.40;3.17;;;;;;;3.61;100.00;100198.78;7397895;19;20403;-40
2023/04/12 05:46:50;;;;;;;9.97;3.60;;;;;;;3.45;100.00;100203.72;7397946;19;20434;-38
2023/04/12 05:49:20;;;;;;;6.30;2.90;;;;;;;3.46;100.00;100200.38;7401830;19;20411;-38
2023/04/12 05:51:49;;;;;;;39.83;10.13;;;;;;;3.66;100.00;100204.16;7396117;19;20447;-36
2023/04/12 05:54:20;;;;;;;8.53;3.40;;;;;;;3.67;100.00;100211.00;7397588;19;20498;-37
2023/04/12 05:56:49;;;;;;;8.57;2.63;;;;;;;3.71;100.00;100204.41;7397119;19;20538;-36
2023/04/12 05:59:21;;;;;;;3.83;2.30;;;;;;;3.68;100.00;100212.75;7398850;19;20403;-37
2023/04/12 06:01:51;;;;;;;9.50;3.30;;;;;;;3.63;100.00;100203.94;7397347;19;20786;-39
2023/04/12 06:04:21;;;;;;;7.57;2.53;;;;;;;3.58;100.00;100196.00;7399830;19;20402;-37
2023/04/12 06:06:51;;;;;;;10.20;2.90;;;;;;;3.77;100.00;100197.13;7397831;19;20454;-37
2023/04/12 06:09:21;;;;;;;9.00;3.00;;;;;;;3.84;100.00;100190.72;7397717;19;20407;-39
2023/04/12 06:11:52;;;;;;;12.50;3.50;;;;;;;3.90;100.00;100184.31;7396835;19;20466;-39
2023/04/12 06:14:24;;;;;;;10.40;3.23;;;;;;;3.95;100.00;100191.38;7397671;19;20403;-38
2023/04/12 06:16:53;;;;;;;15.00;4.50;;;;;;;3.94;100.00;100187.06;7398797;19;20882;-36
2023/04/12 06:19:23;;;;;;;9.83;3.50;;;;;;;4.01;100.00;100196.84;7397579;19;20926;-37
2023/04/12 06:21:53;;;;;;;8.80;3.57;;;;;;;4.32;100.00;100196.09;7396601;19;20477;-37
2023/04/12 06:24:22;;;;;;;47.07;21.30;;;;;;;4.64;100.00;100197.06;7398080;19;20407;-39
2023/04/12 06:26:52;;;;;;;23.23;10.50;;;;;;;4.81;100.00;100187.78;7397263;19;20455;-36
2023/04/12 06:29:24;;;;;;;11.20;4.63;;;;;;;5.10;100.00;100188.50;7400294;19;20426;-36
2023/04/12 06:31:54;;;;;;;11.40;5.10;;;;;;;4.65;100.00;100191.13;7395782;19;20463;-40
2023/04/12 06:34:24;;;;;;;11.70;5.67;;;;;;;4.61;100.00;100193.44;7397124;19;20411;-37
2023/04/12 06:36:53;;;;;;;14.13;4.60;;;;;;;4.65;100.00;100193.69;7397942;19;21010;-38
2023/04/12 06:39:23;;;;;;;32.40;12.67;;;;;;;4.89;100.00;100188.19;7395918;19;20938;-38
2023/04/12 06:41:53;;;;;;;7.73;3.43;;;;;;;4.85;100.00;100199.03;7395037;19;20450;-36
2023/04/12 06:44:25;;;;;;;18.47;7.50;;;;;;;5.07;100.00;100197.69;7397282;19;20535;-36
2023/04/12 06:46:55;;;;;;;8.90;3.40;;;;;;;5.10;100.00;100195.28;7397318;19;20951;-39
2023/04/12 06:49:25;;;;;;;20.40;8.93;;;;;;;5.25;100.00;100198.69;7393467;19;20407;-37
2023/04/12 06:51:54;;;;;;;13.07;3.67;;;;;;;5.27;100.00;100198.75;7394721;19;20841;-40
2023/04/12 06:54:24;;;;;;;16.63;5.47;;;;;;;5.43;100.00;100200.47;7396532;19;20427;-37
2023/04/12 06:56:53;;;;;;;11.80;5.20;;;;;;;5.57;100.00;100195.19;7395745;19;20455;-37
2023/04/12 06:59:26;;;;;;;25.43;5.10;;;;;;;5.57;100.00;100195.19;7396392;19;20411;-36
2023/04/12 07:01:55;;;;;;;7.53;3.30;;;;;;;5.64;100.00;100205.84;7395546;19;20454;-37
2023/04/12 07:04:25;;;;;;;38.27;10.33;;;;;;;5.75;100.00;100206.41;7395346;19;20415;-37
2023/04/12 07:06:54;;;;;;;7.97;2.50;;;;;;;5.66;100.00;100200.81;7394666;19;20942;-37
2023/04/12 07:09:24;;;;;;;7.63;2.63;;;;;;;5.80;100.00;100204.13;7395635;19;20792;-38
2023/04/12 07:11:54;;;;;;;8.23;2.87;;;;;;;5.79;100.00;100213.47;7396118;19;20455;-37
2023/04/12 07:14:26;;;;;;;7.40;3.37;;;;;;;5.88;100.00;100212.16;7397869;19;20758;-37
2023/04/12 07:16:56;;;;;;;9.67;3.20;;;;;;;6.05;100.00;100220.78;7395818;19;20931;-36
2023/04/12 07:19:25;;;;;;;9.30;3.40;;;;;;;6.11;100.00;100222.78;7385961;19;20396;-35
2023/04/12 07:21:55;;;;;;;8.70;3.20;;;;;;;6.26;100.00;100227.81;7386066;19;20424;-36
2023/04/12 07:24:24;;;;;;;12.73;6.83;;;;;;;6.43;100.00;100233.78;7389788;19;20395;-36
2023/04/12 07:26:55;;;;;;;13.33;5.57;;;;;;;6.42;100.00;100247.38;7388257;19;20430;-36
2023/04/12 07:29:27;;;;;;;8.43;2.87;;;;;;;6.48;100.00;100247.69;7388411;19;20388;-40
2023/04/12 07:31:57;;;;;;;6.93;2.80;;;;;;;6.72;100.00;100244.59;7389270;19;20819;-36
2023/04/12 07:34:27;;;;;;;9.73;3.23;;;;;;;6.82;100.00;100239.09;7390302;19;20740;-41
2023/04/12 07:36:57;;;;;;;6.70;2.47;;;;;;;6.67;100.00;100238.38;7388711;19;20410;-37
2023/04/12 07:39:28;;;;;;;13.93;6.07;;;;;;;6.54;100.00;100242.88;7388042;19;20383;-36
2023/04/12 07:41:58;;;;;;;10.60;3.43;;;;;;;6.80;100.00;100240.72;7388069;19;20431;-38
2023/04/12 07:44:30;;;;;;;12.07;2.80;;;;;;;6.79;100.00;100233.84;7387925;19;20421;-37
2023/04/12 07:47:00;;;;;;;7.50;3.73;;;;;;;6.74;100.00;100238.75;7389001;19;20396;-36
2023/04/12 07:49:29;;;;;;;6.40;2.60;;;;;;;6.83;100.00;100235.72;7388131;19;20922;-34
2023/04/12 07:51:59;;;;;;;10.53;3.67;;;;;;;6.76;100.00;100233.66;7388386;19;20427;-38
2023/04/12 07:54:29;;;;;;;8.60;4.13;;;;;;;6.95;100.00;100219.19;7387293;19;20724;-37
2023/04/12 07:57:00;;;;;;;8.17;3.27;;;;;;;6.74;100.00;100215.66;7389826;19;20431;-36
2023/04/12 07:59:32;;;;;;;17.30;7.03;;;;;;;6.97;100.00;100222.72;7389783;19;20398;-36
2023/04/12 08:02:02;;;;;;;9.53;3.93;;;;;;;6.95;100.00;100214.94;7388493;19;20450;-37
2023/04/12 08:04:32;;;;;;;7.07;2.90;;;;;;;6.99;100.00;100210.81;7388511;19;20408;-36
2023/04/12 08:07:01;;;;;;;10.10;3.90;;;;;;;7.04;100.00;100199.09;7389995;19;20479;-37
2023/04/12 08:09:31;;;;;;;8.67;3.10;;;;;;;7.03;100.00;100200.78;7388239;19;20392;-36
2023/04/12 08:12:02;;;;;;;18.50;4.60;;;;;;;6.94;100.00;100208.06;7389287;19;20442;-37
2023/04/12 08:14:34;;;;;;;9.07;2.53;;;;;;;6.96;100.00;100196.16;7388130;19;20427;-37
2023/04/12 08:17:05;;;;;;;7.00;3.40;;;;;;;7.13;100.00;100193.53;7392534;19;20394;-37
2023/04/12 08:19:34;;;;;;;5.37;2.70;;;;;;;7.27;100.00;100204.41;7388911;19;20396;-37
2023/04/12 08:22:04;;;;;;;7.40;2.77;;;;;;;7.56;100.00;100204.88;7389653;19;20423;-37
2023/04/12 08:24:34;;;;;;;8.87;4.03;;;;;;;7.91;100.00;100205.59;7388527;19;20403;-37
2023/04/12 08:27:04;;;;;;;18.07;6.43;;;;;;;8.14;100.00;100210.81;7390313;19;20402;-38
2023/04/12 08:29:36;;;;;;;5.90;2.90;;;;;;;8.21;100.00;100222.25;7388892;19;20406;-37
2023/04/12 08:32:08;;;;;;;14.97;4.67;;;;;;;8.38;100.00;100220.38;7389632;19;20747;-38
2023/04/12 08:34:38;;;;;;;8.00;3.20;;;;;;;8.44;100.00;100220.66;7388957;19;20407;-38
2023/04/12 08:37:08;;;;;;;7.40;2.77;;;;;;;8.43;100.00;100231.75;7393986;19;20768;-37
2023/04/12 08:39:38;;;;;;;12.50;3.67;;;;;;;8.31;100.00;100246.66;7388768;19;20402;-37
2023/04/12 08:42:07;;;;;;;8.03;2.93;;;;;;;8.40;100.00;100243.59;7393462;19;20432;-38
2023/04/12 08:44:40;;;;;;;6.00;2.70;;;;;;;8.26;100.00;100267.03;7388049;19;20807;-36
2023/04/12 08:47:12;;;;;;;8.53;3.40;;;;;;;8.29;100.00;100279.09;7390274;19;20389;-38
2023/04/12 08:49:42;;;;;;;6.97;3.13;;;;;;;8.26;100.00;100285.03;7388317;19;20388;-38
2023/04/12 08:52:12;;;;;;;6.30;2.37;;;;;;;8.20;100.00;100287.31;7389050;19;20586;-37
2023/04/12 08:54:42;;;;;;;4.43;2.13;;;;;;;8.22;100.00;100276.25;7387773;19;20392;-35
2023/04/12 08:57:11;;;;;;;4.87;2.43;;;;;;;8.29;100.00;100273.97;7391455;19;20391;-36
2023/04/12 08:59:44;;;;;;;6.83;2.80;;;;;;;8.19;100.00;100262.41;7390278;19;20410;-36
2023/04/12 09:02:15;;;;;;;6.33;2.60;;;;;;;8.32;100.00;100266.41;7389192;19;20958;-37
2023/04/12 09:04:53;;;;;;;9.30;3.40;;;;;;;8.30;100.00;100253.47;7390978;19;20450;-38
2023/04/12 09:07:26;;;;;;;11.33;3.00;;;;;;;8.29;100.00;100255.97;7388776;19;20398;-37
2023/04/12 09:09:57;;;;;;;4.70;2.40;;;;;;;8.27;100.00;100252.47;7385361;19;20443;-36
2023/04/12 09:12:26;;;;;;;10.87;3.00;;;;;;;8.29;100.00;100249.16;7390436;19;20456;-37
2023/04/12 09:15:14;;;;;;;5.90;2.40;;;;;;;8.37;100.00;100244.34;7389100;19;20430;-37
2023/04/12 09:17:44;;;;;;;9.50;3.50;;;;;;;8.45;100.00;100232.69;7391648;19;20434;-36
2023/04/12 09:20:26;;;;;;;8.10;4.07;;;;;;;8.42;100.00;100227.44;7388602;19;20408;-36
2023/04/12 09:22:56;;;;;;;18.47;3.40;;;;;;;8.47;100.00;100225.91;7392587;19;20415;-35
2023/04/12 09:25:40;;;;;;;5.80;2.43;;;;;;;8.54;100.00;100215.91;7389914;19;20462;-34
2023/04/12 09:28:24;;;;;;;8.60;3.07;;;;;;;8.56;100.00;100204.00;7392363;19;20438;-34
2023/04/12 09:30:58;;;;;;;7.50;2.50;;;;;;;8.58;100.00;100194.66;7388120;19;21021;-35
2023/04/12 09:33:35;;;;;;;12.63;3.30;;;;;;;8.66;100.00;100180.41;7393100;19;20402;-37
2023/04/12 09:36:08;;;;;;;7.53;1.97;;;;;;;8.75;100.00;100170.50;7389836;19;20433;-37
2023/04/12 09:38:38;;;;;;;8.20;2.53;;;;;;;8.82;100.00;100170.75;7391055;19;20422;-34
2023/04/12 09:41:18;;;;;;;8.97;3.37;;;;;;;8.96;100.00;100148.13;7388680;19;20473;-34
2023/04/12 09:43:53;;;;;;;10.40;2.30;;;;;;;9.02;100.00;100138.94;7390996;19;21088;-35
2023/04/12 09:46:25;;;;;;;10.40;2.83;;;;;;;8.86;100.00;100128.88;7390306;19;20435;-35
2023/04/12 09:48:57;;;;;;;12.87;2.63;;;;;;;8.90;100.00;100123.03;7393276;19;20414;-34
2023/04/12 09:51:28;;;;;;;14.70;2.30;;;;;;;8.95;100.00;100118.94;7391901;19;20459;-36
2023/04/12 09:54:01;;;;;;;11.23;4.83;;;;;;;8.99;100.00;100125.09;7397671;19;20514;-35
2023/04/12 09:56:32;;;;;;;11.13;2.87;;;;;;;8.94;100.00;100119.78;7369755;19;20407;-35
2023/04/12 09:59:04;;;;;;;20.00;9.47;;;;;;;9.14;100.00;100114.50;7393036;19;20748;-35
2023/04/12 10:01:38;;;;;;;10.30;4.17;;;;;;;9.17;100.00;100105.19;7389920;19;20848;-36
2023/04/12 10:04:09;;;;;;;20.53;10.20;;;;;;;9.27;100.00;100108.09;7392567;19;20417;-37
2023/04/12 10:06:40;;;;;;;25.80;13.70;;;;;;;9.32;100.00;100104.00;7391781;19;20973;-38
2023/04/12 10:09:10;;;;;;;15.93;7.40;;;;;;;9.48;100.00;100115.72;7392680;19;20395;-36
2023/04/12 10:11:42;;;;;;;9.47;4.57;;;;;;;9.40;100.00;100110.31;7386655;19;20431;-35
2023/04/12 10:14:11;;;;;;;15.23;4.10;;;;;;;9.34;100.00;100109.19;7393136;19;20392;-34
2023/04/12 10:16:46;;;;;;;6.00;2.77;;;;;;;9.32;100.00;100099.72;7392155;19;20441;-34
2023/04/12 10:19:16;;;;;;;9.30;3.03;;;;;;;9.34;100.00;100091.19;7393152;19;20403;-36
2023/04/12 10:21:46;;;;;;;6.90;2.57;;;;;;;9.34;100.00;100086.03;7389753;19;20472;-34
2023/04/12 10:24:16;;;;;;;8.63;3.50;;;;;;;9.49;100.00;100089.13;7391788;19;20400;-34
2023/04/12 10:26:45;;;;;;;10.50;5.00;;;;;;;9.40;100.00;100070.81;7391125;19;21103;-35
2023/04/12 10:29:26;;;;;;;9.00;3.10;;;;;;;9.36;100.00;100069.81;7393201;19;20428;-35
2023/04/12 10:31:59;;;;;;;7.50;2.40;;;;;;;9.40;100.00;100071.69;7390961;19;20449;-35
2023/04/12 10:34:29;;;;;;;5.80;2.80;;;;;;;9.30;100.00;100067.91;7395437;19;20404;-35
2023/04/12 10:37:00;;;;;;;12.87;4.13;;;;;;;9.23;100.00;100086.50;7398011;19;20413;-34
2023/04/12 10:39:38;;;;;;;5.80;2.23;;;;;;;9.21;100.00;100075.28;7390478;19;20395;-35
2023/04/12 10:42:25;;;;;;;8.63;3.00;;;;;;;9.12;100.00;100072.41;7391260;19;20443;-37
2023/04/12 10:44:56;;;;;;;11.17;5.40;;;;;;;9.12;100.00;100073.25;7393261;19;20419;-35
2023/04/12 10:48:03;;;;;;;14.30;5.83;;;;;;;9.30;100.00;100062.75;7397426;19;20415;-34
2023/04/12 10:50:34;;;;;;;16.33;6.37;;;;;;;9.40;100.00;100071.69;7392568;19;20439;-39
2023/04/12 10:53:27;;;;;;;7.77;3.03;;;;;;;9.31;100.00;100054.22;7396186;19;20416;-36
2023/04/12 10:55:57;;;;;;;9.47;3.33;;;;;;;9.26;100.00;100063.47;7392770;19;20458;-36
2023/04/12 10:58:57;;;;;;;13.50;4.80;;;;;;;9.20;100.00;100070.97;7397367;19;20420;-36
2023/04/12 11:01:28;;;;;;;13.00;5.17;;;;;;;9.20;100.00;100063.25;7393826;19;20458;-36
2023/04/12 11:04:25;;;;;;;50.17;15.77;;;;;;;8.97;100.00;100062.41;7396332;19;20431;-38
2023/04/12 11:07:01;;;;;;;5.13;2.40;;;;;;;8.72;100.00;100062.34;7396487;19;20443;-36
2023/04/12 11:09:40;;;;;;;8.27;3.60;;;;;;;8.54;100.00;100067.66;7372107;19;20677;-41
2023/04/12 11:12:14;;;;;;;24.67;7.37;;;;;;;8.45;100.00;100057.84;7393917;19;20841;-36
2023/04/12 11:14:48;;;;;;;7.10;3.07;;;;;;;8.48;100.00;100063.13;7392590;19;20934;-37
2023/04/12 11:17:27;;;;;;;10.13;4.00;;;;;;;8.41;100.00;100061.13;7396558;19;20415;-36
2023/04/12 11:20:03;;;;;;;6.83;2.63;;;;;;;8.07;100.00;100064.91;7392111;19;20430;-35
2023/04/12 11:22:34;;;;;;;8.93;3.57;;;;;;;8.03;100.00;100058.78;7394703;19;20463;-36
2023/04/12 11:25:04;;;;;;;10.50;3.67;;;;;;;7.89;100.00;100049.63;7391883;19;20436;-37
2023/04/12 11:27:36;;;;;;;9.30;4.40;;;;;;;7.86;100.00;100045.25;7394565;19;20411;-36
2023/04/12 11:30:07;;;;;;;9.10;3.30;;;;;;;7.77;100.00;100024.31;7393442;19;20418;-35
2023/04/12 11:32:40;;;;;;;11.10;4.80;;;;;;;7.71;100.00;100019.81;7395344;19;20482;-35
2023/04/12 11:35:12;;;;;;;10.60;4.40;;;;;;;7.62;100.00;100002.31;7392928;19;20428;-35
2023/04/12 11:37:42;;;;;;;7.03;3.03;;;;;;;7.47;100.00;99999.97;7394750;19;20770;-36
2023/04/12 11:40:12;;;;;;;13.23;4.47;;;;;;;7.36;100.00;99991.84;7391869;19;20426;-36